Time;durP1;ratioP1;P1;durP2;ratioP2;P2;SDS_P1;SDS_P2;PMS_P1;PMS_P2;Temp;Humidity;BMP_temperature;BMP_pressure;BME280_temperature;BME280_humidity;BME280_pressure;Samples;Min_cycle;Max_cycle;Signal;HPM_P1;HPM_P2
2023/09/26 00:00:59;;;;;;;3.70;3.40;;;;;;;11.21;100.00;100860.22;4968768;28;20270;-75
2023/09/26 00:03:27;;;;;;;2.90;2.70;;;;;;;11.18;100.00;100849.00;4970304;28;20203;-76
2023/09/26 00:05:56;;;;;;;3.37;3.10;;;;;;;11.17;100.00;100850.72;4958327;28;20285;-77
2023/09/26 00:08:22;;;;;;;4.10;3.70;;;;;;;11.17;100.00;100853.31;4969567;28;20206;-76
2023/09/26 00:10:47;;;;;;;3.83;3.13;;;;;;;11.16;100.00;100853.31;4965962;28;20665;-76
2023/09/26 00:13:13;;;;;;;3.50;3.13;;;;;;;11.13;100.00;100855.03;4976643;28;20183;-77
2023/09/26 00:15:39;;;;;;;4.47;4.00;;;;;;;11.12;100.00;100848.13;4965482;28;20201;-76
2023/09/26 00:18:05;;;;;;;3.43;3.13;;;;;;;11.09;100.00;100857.66;4965406;28;20220;-76
2023/09/26 00:20:32;;;;;;;4.13;3.83;;;;;;;11.05;100.00;100856.78;4967031;28;20219;-76
2023/09/26 00:22:58;;;;;;;3.70;3.40;;;;;;;11.02;100.00;100861.09;4957358;28;20202;-76
2023/09/26 00:25:24;;;;;;;3.47;3.17;;;;;;;10.97;100.00;100858.53;4963599;28;20192;-77
2023/09/26 00:27:50;;;;;;;4.03;3.30;;;;;;;10.94;100.00;100856.81;4967390;28;20209;-77
2023/09/26 00:30:16;;;;;;;4.10;3.70;;;;;;;10.91;100.00;100874.94;4968434;28;20185;-76
2023/09/26 00:32:42;;;;;;;3.37;3.07;;;;;;;10.88;100.00;100864.56;4962449;28;20203;-76
2023/09/26 00:35:10;;;;;;;4.07;3.67;;;;;;;10.85;100.00;100861.13;4963378;28;20199;-76
2023/09/26 00:37:35;;;;;;;3.90;3.40;;;;;;;10.84;100.00;100865.44;4966102;28;20271;-77
2023/09/26 00:40:01;;;;;;;3.50;3.20;;;;;;;10.82;100.00;100868.03;4964829;28;20272;-76
2023/09/26 00:42:26;;;;;;;3.90;3.27;;;;;;;10.82;100.00;100862.84;4961358;28;20337;-76
2023/09/26 00:44:52;;;;;;;3.67;3.00;;;;;;;10.83;100.00;100863.69;4966415;28;20198;-76
2023/09/26 00:47:17;;;;;;;3.70;3.40;;;;;;;10.84;100.00;100860.25;4961357;28;20212;-76
2023/09/26 00:49:43;;;;;;;4.60;3.30;;;;;;;10.88;100.00;100863.72;4961556;28;20191;-77
2023/09/26 00:52:09;;;;;;;3.17;2.97;;;;;;;10.90;100.00;100864.56;4967405;28;20194;-76
2023/09/26 00:54:35;;;;;;;3.50;3.20;;;;;;;10.91;100.00;100869.75;4965719;28;20190;-77
2023/09/26 00:57:02;;;;;;;3.80;3.43;;;;;;;10.93;100.00;100856.78;4972630;28;20263;-78
2023/09/26 00:59:28;;;;;;;3.77;3.17;;;;;;;10.92;100.00;100861.13;4962809;28;20199;-76
2023/09/26 01:01:55;;;;;;;3.53;3.23;;;;;;;10.89;100.00;100857.69;4963981;28;20193;-76
2023/09/26 01:04:22;;;;;;;3.53;3.23;;;;;;;10.87;100.00;100859.41;4962622;28;20205;-78
2023/09/26 01:06:48;;;;;;;3.80;3.40;;;;;;;10.79;100.00;100859.41;4962308;28;20187;-78
2023/09/26 01:09:14;;;;;;;3.93;3.63;;;;;;;10.73;100.00;100856.81;4964950;28;20226;-78
2023/09/26 01:11:39;;;;;;;3.30;2.97;;;;;;;10.66;100.00;100859.41;4971702;28;20330;-76
2023/09/26 01:14:05;;;;;;;3.63;3.33;;;;;;;10.65;100.00;100862.88;4963159;28;20650;-76
2023/09/26 01:16:30;;;;;;;3.37;3.17;;;;;;;10.64;100.00;100861.16;4968125;28;20193;-77
2023/09/26 01:18:55;;;;;;;3.07;2.87;;;;;;;10.65;100.00;100864.59;4963770;28;20255;-77
2023/09/26 01:21:21;;;;;;;2.80;2.60;;;;;;;10.65;100.00;100857.69;4968404;28;20182;-77
2023/09/26 01:23:54;;;;;;;3.33;3.03;;;;;;;10.64;100.00;100862.84;4962645;28;20239;-77
2023/09/26 01:26:19;;;;;;;3.20;2.90;;;;;;;10.65;100.00;100868.06;4966569;28;20186;-76
2023/09/26 01:28:45;;;;;;;3.33;2.90;;;;;;;10.65;100.00;100862.00;4980101;28;20686;-76
2023/09/26 01:31:10;;;;;;;3.37;3.07;;;;;;;10.65;100.00;100855.13;4990602;28;20201;-78
2023/09/26 01:33:35;;;;;;;2.90;2.63;;;;;;;10.67;100.00;100853.34;4993964;28;20181;-76
2023/09/26 01:36:01;;;;;;;3.20;2.90;;;;;;;10.68;100.00;100851.66;4964770;28;20584;-76
2023/09/26 01:38:26;;;;;;;2.43;2.30;;;;;;;10.67;100.00;100850.75;4968739;28;20206;-76
2023/09/26 01:40:52;;;;;;;3.17;2.97;;;;;;;10.64;100.00;100855.97;4961031;28;20184;-76
2023/09/26 01:43:17;;;;;;;3.30;3.03;;;;;;;10.62;100.00;100849.06;4966575;28;20186;-76
2023/09/26 01:45:43;;;;;;;3.20;2.90;;;;;;;10.61;100.00;100844.72;4981197;28;20193;-77
2023/09/26 01:48:09;;;;;;;3.70;3.40;;;;;;;10.59;100.00;100846.47;4960242;28;20198;-77
2023/09/26 01:50:35;;;;;;;3.80;3.00;;;;;;;10.55;100.00;100849.94;4967253;28;20185;-77
2023/09/26 01:53:01;;;;;;;3.50;3.27;;;;;;;10.51;100.00;100849.06;4958180;28;20219;-75
2023/09/26 01:55:26;;;;;;;4.50;3.00;;;;;;;10.48;100.00;100855.09;4967185;28;20194;-76
2023/09/26 01:57:51;;;;;;;3.10;2.80;;;;;;;10.44;100.00;100849.91;4967896;28;20215;-76
2023/09/26 02:00:19;;;;;;;3.00;2.80;;;;;;;10.39;100.00;100854.22;4967910;28;20941;-76
2023/09/26 02:02:47;;;;;;;3.03;2.83;;;;;;;10.35;100.00;100856.78;4965922;28;20202;-75
2023/09/26 02:05:18;;;;;;;3.30;3.00;;;;;;;10.31;100.00;100854.16;4969252;28;20194;-77
2023/09/26 02:07:45;;;;;;;3.03;2.83;;;;;;;10.30;100.00;100852.44;4961840;28;20233;-77
2023/09/26 02:10:10;;;;;;;3.00;2.80;;;;;;;10.28;100.00;100844.69;4967591;28;20249;-76
2023/09/26 02:12:39;;;;;;;3.30;3.10;;;;;;;10.27;100.00;100850.72;4960656;28;20198;-76
2023/09/26 02:15:06;;;;;;;3.80;3.50;;;;;;;10.24;100.00;100852.44;4964681;28;20191;-76
2023/09/26 02:17:35;;;;;;;3.53;3.27;;;;;;;10.20;100.00;100854.19;4968490;28;20482;-75
2023/09/26 02:20:20;;;;;;;3.30;3.00;;;;;;;10.17;100.00;100851.59;4966770;28;20194;-77
2023/09/26 02:22:51;;;;;;;3.63;3.33;;;;;;;10.14;100.00;100846.41;4960280;28;20206;-76
2023/09/26 02:25:19;;;;;;;2.90;2.70;;;;;;;10.11;100.00;100847.25;4957601;28;20213;-76
2023/09/26 02:27:44;;;;;;;3.30;2.97;;;;;;;10.06;100.00;100844.66;4958800;28;20876;-76
2023/09/26 02:30:13;;;;;;;3.10;2.80;;;;;;;10.01;100.00;100850.66;4970327;28;20268;-76
2023/09/26 02:32:39;;;;;;;3.53;2.80;;;;;;;9.98;100.00;100848.09;4964706;28;20308;-75
2023/09/26 02:35:06;;;;;;;3.57;3.07;;;;;;;9.95;100.00;100842.91;4966546;28;20257;-76
2023/09/26 02:37:32;;;;;;;3.00;2.70;;;;;;;9.90;100.00;100845.50;4964776;28;20221;-76
2023/09/26 02:39:57;;;;;;;3.43;3.13;;;;;;;9.86;100.00;100843.75;4962074;28;20190;-76
2023/09/26 02:42:22;;;;;;;4.33;3.40;;;;;;;9.84;100.00;100842.88;4959017;28;21922;-76
2023/09/26 02:44:48;;;;;;;3.80;3.47;;;;;;;9.83;100.00;100847.16;4957560;28;20208;-75
2023/09/26 02:47:14;;;;;;;4.03;3.60;;;;;;;9.81;100.00;100846.31;4963179;28;20189;-75
2023/09/26 02:49:39;;;;;;;3.00;2.80;;;;;;;9.77;100.00;100835.09;4960445;28;20195;-76
2023/09/26 02:52:04;;;;;;;3.57;3.27;;;;;;;9.76;100.00;100842.84;4957573;28;20192;-75
2023/09/26 02:54:30;;;;;;;3.53;3.23;;;;;;;9.73;100.00;100842.84;4959078;28;20211;-75
2023/09/26 02:56:57;;;;;;;3.60;3.30;;;;;;;9.71;100.00;100841.97;4956803;28;20186;-78
2023/09/26 02:59:22;;;;;;;3.90;3.60;;;;;;;9.70;100.00;100848.88;4956074;28;20248;-76
2023/09/26 03:01:48;;;;;;;3.70;3.40;;;;;;;9.70;100.00;100842.81;4960961;28;20624;-76
2023/09/26 03:04:13;;;;;;;3.20;3.00;;;;;;;9.70;100.00;100840.25;4952931;28;20183;-76
2023/09/26 03:06:38;;;;;;;3.60;3.30;;;;;;;9.68;100.00;100845.41;4968618;28;20271;-76
2023/09/26 03:09:04;;;;;;;3.97;3.57;;;;;;;9.67;100.00;100842.84;4949519;28;20739;-75
2023/09/26 03:11:30;;;;;;;3.20;2.93;;;;;;;9.68;100.00;100844.56;4957886;28;20258;-75
2023/09/26 03:13:55;;;;;;;3.30;3.10;;;;;;;9.69;100.00;100839.38;4959086;28;20191;-76
2023/09/26 03:16:20;;;;;;;3.73;3.43;;;;;;;9.69;100.00;100834.22;4961482;28;20189;-77
2023/09/26 03:18:52;;;;;;;3.67;3.37;;;;;;;9.70;100.00;100829.91;4964270;28;20364;-76
2023/09/26 03:21:17;;;;;;;3.60;3.30;;;;;;;9.71;100.00;100834.22;4964111;28;20185;-77
2023/09/26 03:23:42;;;;;;;3.67;3.37;;;;;;;9.71;100.00;100839.38;4961949;28;20192;-77
2023/09/26 03:26:12;;;;;;;3.53;3.23;;;;;;;9.70;100.00;100838.53;4963673;28;20181;-77
2023/09/26 03:28:38;;;;;;;3.77;3.40;;;;;;;9.69;100.00;100835.91;4975331;28;20229;-76
2023/09/26 03:31:04;;;;;;;5.97;3.50;;;;;;;9.68;100.00;100829.06;4978569;28;20263;-76
2023/09/26 03:33:29;;;;;;;3.37;3.17;;;;;;;9.65;100.00;100837.63;4958452;28;20193;-76
2023/09/26 03:35:56;;;;;;;3.37;3.07;;;;;;;9.64;100.00;100829.91;4957785;28;20186;-75
2023/09/26 03:38:23;;;;;;;3.60;3.30;;;;;;;9.63;100.00;100826.44;4959373;28;20218;-75
2023/09/26 03:40:54;;;;;;;3.23;2.93;;;;;;;9.64;100.00;100832.47;4964351;28;20189;-76
2023/09/26 03:43:20;;;;;;;3.63;3.33;;;;;;;9.64;100.00;100837.66;4965089;28;20194;-76
2023/09/26 03:45:45;;;;;;;3.47;3.17;;;;;;;9.59;100.00;100835.06;4965177;28;20202;-78
2023/09/26 03:48:10;;;;;;;3.37;3.03;;;;;;;9.54;100.00;100837.59;4964496;28;20216;-77
2023/09/26 03:50:36;;;;;;;3.10;2.90;;;;;;;9.51;100.00;100837.59;4965268;28;20237;-76
2023/09/26 03:53:01;;;;;;;4.57;3.67;;;;;;;9.51;100.00;100837.59;4964011;28;20193;-75
2023/09/26 03:55:26;;;;;;;3.60;3.30;;;;;;;9.50;100.00;100832.41;4966441;28;20186;-77
2023/09/26 03:57:52;;;;;;;3.23;3.03;;;;;;;9.48;100.00;100829.84;4962824;28;20229;-77
2023/09/26 04:00:18;;;;;;;3.80;3.40;;;;;;;9.54;100.00;100842.75;4964740;28;20607;-76
2023/09/26 04:02:44;;;;;;;3.70;3.40;;;;;;;9.55;100.00;100839.31;4959955;28;20205;-76
2023/09/26 04:05:09;;;;;;;4.33;3.57;;;;;;;9.57;100.00;100832.44;4966592;28;20208;-77
2023/09/26 04:07:35;;;;;;;4.20;3.80;;;;;;;9.58;100.00;100830.75;4962800;28;20237;-76
2023/09/26 04:10:01;;;;;;;3.67;3.37;;;;;;;9.56;100.00;100838.47;4967302;28;20182;-76
2023/09/26 04:12:26;;;;;;;3.43;3.17;;;;;;;9.55;100.00;100839.31;4961520;28;20760;-77
2023/09/26 04:14:51;;;;;;;4.27;3.30;;;;;;;9.55;100.00;100838.47;4964469;28;20191;-76
2023/09/26 04:17:17;;;;;;;3.60;3.30;;;;;;;9.52;100.00;100838.44;4961126;28;20229;-76
2023/09/26 04:19:46;;;;;;;3.80;3.40;;;;;;;9.50;100.00;100830.72;4957534;28;20190;-78
2023/09/26 04:22:11;;;;;;;3.83;3.23;;;;;;;9.45;100.00;100824.66;4958664;28;20741;-76
2023/09/26 04:24:36;;;;;;;3.77;3.47;;;;;;;9.43;100.00;100828.94;4961686;28;20187;-76
2023/09/26 04:27:02;;;;;;;4.20;3.80;;;;;;;9.39;100.00;100829.78;4968407;28;20190;-77
2023/09/26 04:29:28;;;;;;;3.77;3.37;;;;;;;9.34;100.00;100827.19;4959672;28;20194;-77
2023/09/26 04:31:53;;;;;;;3.93;3.53;;;;;;;9.28;100.00;100822.84;4966641;28;20541;-76
2023/09/26 04:34:21;;;;;;;4.40;4.00;;;;;;;9.27;100.00;100833.19;4963213;28;20197;-76
2023/09/26 04:36:46;;;;;;;4.67;4.27;;;;;;;9.26;100.00;100829.72;4963705;28;20182;-76
2023/09/26 04:39:11;;;;;;;4.53;4.13;;;;;;;9.25;100.00;100820.25;4962866;28;20222;-77
2023/09/26 04:41:37;;;;;;;4.27;3.83;;;;;;;9.25;100.00;100829.72;4959411;28;20220;-76
2023/09/26 04:44:02;;;;;;;3.87;3.57;;;;;;;9.22;100.00;100822.84;4960834;28;20189;-77
2023/09/26 04:46:27;;;;;;;4.40;3.70;;;;;;;9.22;100.00;100815.09;4957462;28;20240;-76
2023/09/26 04:48:53;;;;;;;4.77;3.90;;;;;;;9.21;100.00;100821.09;4964611;28;20633;-76
2023/09/26 04:51:18;;;;;;;4.20;3.80;;;;;;;9.20;100.00;100821.97;4959315;28;20186;-75
2023/09/26 04:53:44;;;;;;;4.53;4.13;;;;;;;9.20;100.00;100824.53;4964039;28;20198;-78
2023/09/26 04:56:09;;;;;;;4.27;3.87;;;;;;;9.20;100.00;100823.66;4965567;28;20261;-75
2023/09/26 04:58:35;;;;;;;4.33;4.00;;;;;;;9.19;100.00;100827.09;4955942;28;20219;-76
2023/09/26 05:01:11;;;;;;;4.20;3.80;;;;;;;9.18;100.00;100825.38;4975744;28;20253;-77
2023/09/26 05:03:36;;;;;;;6.53;4.23;;;;;;;9.17;100.00;100831.38;4956269;28;20658;-77
2023/09/26 05:06:02;;;;;;;4.37;3.97;;;;;;;9.15;100.00;100831.38;4963320;28;20190;-78
2023/09/26 05:08:27;;;;;;;5.93;4.10;;;;;;;9.16;100.00;100822.78;4957321;28;20255;-76
2023/09/26 05:10:53;;;;;;;7.13;4.47;;;;;;;9.17;100.00;100829.69;4956104;28;20943;-76
2023/09/26 05:13:18;;;;;;;7.00;5.50;;;;;;;9.19;100.00;100829.69;4977917;28;20607;-76
2023/09/26 05:15:43;;;;;;;6.07;4.17;;;;;;;9.16;100.00;100833.13;4966381;28;20188;-76
2023/09/26 05:18:09;;;;;;;5.60;4.07;;;;;;;9.19;100.00;100840.88;4964156;28;20260;-76
2023/09/26 05:20:35;;;;;;;4.33;3.93;;;;;;;9.22;100.00;100840.03;4957698;28;20201;-76
2023/09/26 05:23:01;;;;;;;4.60;4.20;;;;;;;9.24;100.00;100834.00;4959438;28;20646;-76
2023/09/26 05:25:27;;;;;;;4.63;4.23;;;;;;;9.26;100.00;100831.44;4972152;28;20181;-77
2023/09/26 05:27:52;;;;;;;5.93;4.63;;;;;;;9.27;100.00;100834.03;4996063;28;20210;-78
2023/09/26 05:30:18;;;;;;;5.33;4.17;;;;;;;9.29;100.00;100837.50;4971325;28;20668;-76
2023/09/26 05:32:43;;;;;;;4.60;4.20;;;;;;;9.31;100.00;100837.47;4962775;28;20273;-76
2023/09/26 05:35:09;;;;;;;4.73;4.20;;;;;;;9.31;100.00;100840.06;4962565;28;20186;-77
2023/09/26 05:37:36;;;;;;;4.93;4.43;;;;;;;9.31;100.00;100837.47;4961475;28;20307;-77
2023/09/26 05:40:06;;;;;;;4.50;3.70;;;;;;;9.31;100.00;100847.81;4962997;28;20957;-76
2023/09/26 05:42:35;;;;;;;4.20;3.80;;;;;;;9.35;100.00;100844.41;4964397;28;20196;-76
2023/09/26 05:45:02;;;;;;;3.87;3.57;;;;;;;9.39;100.00;100848.72;4972119;28;20251;-75
2023/09/26 05:47:27;;;;;;;4.20;3.80;;;;;;;9.45;100.00;100847.91;4967705;28;20233;-79
2023/09/26 05:49:52;;;;;;;4.17;3.77;;;;;;;9.55;100.00;100848.81;4966328;28;20288;-76
2023/09/26 05:52:20;;;;;;;4.30;3.87;;;;;;;9.67;100.00;100848.00;4967613;28;20284;-76
2023/09/26 05:54:46;;;;;;;4.13;3.73;;;;;;;9.76;100.00;100854.03;4971341;28;20229;-76
2023/09/26 05:57:11;;;;;;;3.90;3.60;;;;;;;9.85;100.00;100853.22;4966273;28;20288;-76
2023/09/26 05:59:36;;;;;;;4.90;4.00;;;;;;;9.91;100.00;100853.25;4968083;28;20196;-76
2023/09/26 06:02:01;;;;;;;7.37;5.37;;;;;;;9.98;100.00;100851.53;4968926;28;20643;-77
2023/09/26 06:04:27;;;;;;;5.33;4.67;;;;;;;10.02;100.00;100850.69;4965980;28;20285;-77
2023/09/26 06:06:52;;;;;;;4.87;4.20;;;;;;;10.06;100.00;100854.13;4967284;28;20281;-77
2023/09/26 06:09:17;;;;;;;4.67;4.27;;;;;;;10.10;100.00;100860.16;4970539;28;20241;-76
2023/09/26 06:11:43;;;;;;;4.47;3.97;;;;;;;10.10;100.00;100867.94;4973416;28;20192;-76
2023/09/26 06:14:08;;;;;;;4.37;4.03;;;;;;;10.11;100.00;100859.31;4973316;28;20248;-75
2023/09/26 06:16:34;;;;;;;4.70;4.20;;;;;;;10.14;100.00;100867.09;4974837;28;20197;-78
2023/09/26 06:18:59;;;;;;;4.77;4.27;;;;;;;10.14;100.00;100867.94;4961743;28;20240;-77
2023/09/26 06:21:25;;;;;;;4.50;4.10;;;;;;;10.16;100.00;100865.38;4977367;28;20296;-77
2023/09/26 06:23:50;;;;;;;4.73;4.10;;;;;;;10.22;100.00;100867.94;4976941;28;20278;-78
2023/09/26 06:26:15;;;;;;;4.50;4.10;;;;;;;10.31;100.00;100878.34;4974794;28;20666;-76
2023/09/26 06:28:40;;;;;;;3.93;3.63;;;;;;;10.42;100.00;100883.56;4970434;28;20214;-77
2023/09/26 06:31:07;;;;;;;3.73;3.43;;;;;;;10.50;100.00;100879.25;4971972;28;20192;-76
2023/09/26 06:33:34;;;;;;;3.80;3.50;;;;;;;10.57;100.00;100885.28;4969610;28;20285;-75
2023/09/26 06:36:00;;;;;;;3.83;3.40;;;;;;;10.63;100.00;100885.31;4970520;28;20200;-77
2023/09/26 06:38:25;;;;;;;3.73;3.30;;;;;;;10.70;100.00;100880.09;4964325;28;20606;-76
2023/09/26 06:41:01;;;;;;;4.00;3.43;;;;;;;10.75;100.00;100879.25;4969876;28;20242;-76
2023/09/26 06:43:26;;;;;;;3.73;3.43;;;;;;;10.82;100.00;100882.69;4968985;28;20187;-76
2023/09/26 06:45:52;;;;;;;3.20;3.00;;;;;;;10.89;100.00;100883.59;4964349;28;20197;-76
2023/09/26 06:48:17;;;;;;;3.70;3.40;;;;;;;10.96;100.00;100873.22;4973223;28;20234;-76
2023/09/26 06:50:43;;;;;;;3.80;3.50;;;;;;;11.05;100.00;100876.66;4964521;28;20596;-79
2023/09/26 06:53:08;;;;;;;4.23;3.47;;;;;;;11.13;100.00;100878.34;4965181;28;20195;-76
2023/09/26 06:55:39;;;;;;;3.80;3.50;;;;;;;11.25;100.00;100879.19;4966505;28;20237;-77
2023/09/26 06:58:07;;;;;;;3.63;3.33;;;;;;;11.35;100.00;100886.06;4968350;28;20986;-76
2023/09/26 07:00:32;;;;;;;5.17;4.77;;;;;;;11.47;100.00;100886.94;4963564;28;20198;-78
2023/09/26 07:02:58;;;;;;;4.23;3.93;;;;;;;11.57;100.00;100889.47;4965357;28;20226;-76
2023/09/26 07:05:26;;;;;;;4.90;4.40;;;;;;;11.69;100.00;100877.34;4964596;28;20202;-76
2023/09/26 07:07:51;;;;;;;4.50;4.10;;;;;;;11.79;100.00;100879.00;4953027;28;20588;-75
2023/09/26 07:10:17;;;;;;;4.10;3.70;;;;;;;11.89;100.00;100883.28;4969498;28;20199;-77
2023/09/26 07:12:44;;;;;;;4.87;4.47;;;;;;;11.98;100.00;100878.94;4957742;28;20289;-76
2023/09/26 07:15:12;;;;;;;4.30;3.90;;;;;;;12.07;100.00;100878.91;4955157;28;20197;-76
2023/09/26 07:17:37;;;;;;;4.20;3.87;;;;;;;12.17;100.00;100871.94;4958137;28;20232;-77
2023/09/26 07:20:06;;;;;;;3.90;3.60;;;;;;;12.32;100.00;100870.97;4960797;28;20207;-77
2023/09/26 07:22:32;;;;;;;3.70;3.40;;;;;;;12.55;100.00;100878.59;4967291;28;21059;-77
2023/09/26 07:24:57;;;;;;;4.13;3.83;;;;;;;12.75;100.00;100885.34;4971728;28;20194;-77
2023/09/26 07:27:23;;;;;;;4.20;3.80;;;;;;;12.98;100.00;100879.09;4962720;28;20799;-77
2023/09/26 07:29:48;;;;;;;3.73;3.17;;;;;;;13.18;100.00;100878.91;4962647;28;20194;-76
2023/09/26 07:32:15;;;;;;;3.40;3.10;;;;;;;13.46;100.00;100876.03;4963685;28;20206;-75
2023/09/26 07:34:41;;;;;;;3.60;3.30;;;;;;;13.68;100.00;100887.91;4975052;28;20187;-76
2023/09/26 07:37:07;;;;;;;3.70;3.03;;;;;;;13.88;100.00;100886.78;4959022;28;20677;-77
2023/09/26 07:39:32;;;;;;;3.83;3.53;;;;;;;14.11;100.00;100883.03;4967266;28;20685;-77
2023/09/26 07:41:58;;;;;;;3.80;3.50;;;;;;;14.23;100.00;100887.16;4961039;28;20293;-76
2023/09/26 07:44:23;;;;;;;4.23;3.73;;;;;;;14.30;100.00;100881.84;4961577;28;20229;-77
2023/09/26 07:46:49;;;;;;;3.63;3.33;;;;;;;14.41;100.00;100879.09;4960693;28;20194;-77
2023/09/26 07:49:15;;;;;;;3.47;3.17;;;;;;;14.42;100.00;100886.03;4965121;28;20215;-76
2023/09/26 07:51:41;;;;;;;3.90;3.60;;;;;;;14.41;100.00;100880.84;4959962;28;20185;-74
2023/09/26 07:54:06;;;;;;;4.30;3.90;;;;;;;14.35;100.00;100884.41;4954543;28;20263;-75
2023/09/26 07:56:31;;;;;;;3.43;3.13;;;;;;;14.34;100.00;100880.09;4972275;28;20201;-76
2023/09/26 07:58:57;;;;;;;4.13;3.70;;;;;;;14.30;100.00;100873.19;4965619;28;20252;-78
2023/09/26 08:01:22;;;;;;;3.73;3.10;;;;;;;14.36;100.00;100877.44;4969776;28;20935;-77
2023/09/26 08:03:47;;;;;;;4.43;4.03;;;;;;;14.50;100.00;100877.25;4968840;28;20206;-77
2023/09/26 08:06:13;;;;;;;3.67;3.37;;;;;;;14.55;100.00;100878.00;4958395;28;20195;-75
2023/09/26 08:08:38;;;;;;;3.37;3.17;;;;;;;14.62;100.00;100875.28;4959575;28;20645;-75
2023/09/26 08:11:11;;;;;;;3.83;3.43;;;;;;;14.67;100.00;100875.19;4955296;28;20335;-75
2023/09/26 08:13:39;;;;;;;3.90;3.53;;;;;;;14.72;100.00;100876.03;4966456;28;20190;-77
2023/09/26 08:16:05;;;;;;;3.87;3.20;;;;;;;14.74;100.00;100873.41;4954915;28;20190;-77
2023/09/26 08:18:30;;;;;;;4.97;4.23;;;;;;;14.90;100.00;100874.00;4972743;28;20224;-77
2023/09/26 08:20:57;;;;;;;4.00;3.70;;;;;;;14.96;100.00;100870.41;4958964;28;20217;-77
2023/09/26 08:23:28;;;;;;;3.87;3.50;;;;;;;14.89;100.00;100865.34;4960103;28;20268;-76
2023/09/26 08:26:02;;;;;;;3.80;3.50;;;;;;;14.98;100.00;100866.88;4966728;28;20729;-76
2023/09/26 08:28:28;;;;;;;3.77;3.50;;;;;;;15.05;100.00;100868.50;4968329;28;20214;-76
2023/09/26 08:30:56;;;;;;;4.00;3.70;;;;;;;15.08;100.00;100860.66;4967333;28;20252;-76
2023/09/26 08:33:23;;;;;;;4.40;3.57;;;;;;;15.17;100.00;100866.56;4976216;28;20184;-78
2023/09/26 08:35:50;;;;;;;3.50;3.20;;;;;;;15.28;100.00;100866.34;4973958;28;20190;-75
2023/09/26 08:38:15;;;;;;;4.57;3.67;;;;;;;15.34;100.00;100869.72;4978276;28;20246;-77
2023/09/26 08:40:43;;;;;;;3.80;3.37;;;;;;;15.44;100.00;100861.69;4973244;28;20254;-76
2023/09/26 08:43:10;;;;;;;3.73;3.43;;;;;;;15.54;100.00;100853.66;4973054;28;20199;-76
2023/09/26 08:45:36;;;;;;;3.33;3.03;;;;;;;15.62;100.00;100856.09;4972552;28;20194;-75
2023/09/26 08:48:01;;;;;;;4.03;3.70;;;;;;;15.73;100.00;100853.28;4984738;28;20680;-76
2023/09/26 08:50:26;;;;;;;3.80;3.40;;;;;;;15.79;100.00;100850.53;4970560;28;20734;-75
2023/09/26 08:52:52;;;;;;;3.37;3.10;;;;;;;15.82;100.00;100844.41;4980795;28;20720;-76
2023/09/26 08:55:18;;;;;;;4.17;3.13;;;;;;;15.89;100.00;100847.75;4965010;28;20198;-76
2023/09/26 08:57:43;;;;;;;3.50;3.20;;;;;;;16.05;100.00;100846.53;4987997;28;20217;-75
2023/09/26 09:00:12;;;;;;;4.33;3.93;;;;;;;16.21;100.00;100843.56;4990548;28;20266;-76
2023/09/26 09:02:38;;;;;;;3.47;3.17;;;;;;;16.20;100.00;100844.44;4974389;28;20200;-76
2023/09/26 09:05:06;;;;;;;4.23;3.53;;;;;;;16.25;100.00;100840.00;4984745;28;20547;-77
2023/09/26 09:07:32;;;;;;;4.53;4.20;;;;;;;16.18;100.00;100834.06;4966117;28;20232;-77
2023/09/26 09:10:07;;;;;;;3.50;3.20;;;;;;;16.30;100.00;100841.59;4968129;28;20206;-77
2023/09/26 09:12:34;;;;;;;3.53;3.10;;;;;;;16.41;100.00;100843.91;4970674;28;20208;-76
2023/09/26 09:14:59;;;;;;;3.70;3.40;;;;;;;16.52;100.00;100840.19;4975652;28;20675;-77
2023/09/26 09:17:25;;;;;;;4.43;4.10;;;;;;;16.43;100.00;100839.50;4975240;28;20249;-77
2023/09/26 09:19:52;;;;;;;4.03;3.67;;;;;;;16.35;100.00;100837.97;4978534;28;20217;-76
2023/09/26 09:22:24;;;;;;;3.93;3.60;;;;;;;16.59;100.00;100834.78;4984322;28;20192;-75
2023/09/26 09:24:54;;;;;;;4.70;3.97;;;;;;;16.68;100.00;100833.69;4975706;28;20201;-76
2023/09/26 09:27:38;;;;;;;3.83;3.50;;;;;;;16.84;100.00;100826.31;4969086;28;20221;-76
2023/09/26 09:30:14;;;;;;;3.80;3.50;;;;;;;16.98;100.00;100832.94;4977054;28;20192;-77
2023/09/26 09:32:41;;;;;;;3.93;2.87;;;;;;;17.05;100.00;100821.44;4986010;28;20275;-77
2023/09/26 09:35:09;;;;;;;6.43;4.50;;;;;;;17.06;100.00;100825.78;4984919;28;20568;-75
2023/09/26 09:37:34;;;;;;;5.13;4.30;;;;;;;16.80;100.00;100819.44;4977185;28;20250;-76
2023/09/26 09:40:00;;;;;;;4.97;3.90;;;;;;;16.68;100.00;100815.41;4968065;28;20261;-76
2023/09/26 09:42:25;;;;;;;6.13;3.60;;;;;;;16.76;100.00;100820.44;4968882;28;20197;-75
2023/09/26 09:44:51;;;;;;;3.73;3.40;;;;;;;16.46;100.00;100810.72;4969783;28;20201;-76
2023/09/26 09:47:24;;;;;;;3.50;3.20;;;;;;;16.54;100.00;100817.50;4960936;28;20751;-76
2023/09/26 09:49:51;;;;;;;3.27;2.97;;;;;;;16.86;100.00;100813.22;4953713;28;20543;-76
2023/09/26 09:52:21;;;;;;;3.30;2.97;;;;;;;16.87;100.00;100810.53;4949369;28;20206;-76
2023/09/26 09:54:48;;;;;;;6.20;3.10;;;;;;;16.96;100.00;100813.81;4962351;28;20197;-76
2023/09/26 09:57:21;;;;;;;2.63;2.43;;;;;;;17.05;100.00;100803.13;4953264;28;20193;-75
2023/09/26 09:59:48;;;;;;;3.17;2.90;;;;;;;17.05;100.00;100803.13;4950486;28;21002;-75
2023/09/26 10:02:16;;;;;;;3.83;2.53;;;;;;;17.24;100.00;100797.38;4957946;28;21314;-77
2023/09/26 10:04:44;;;;;;;3.07;2.30;;;;;;;17.39;100.00;100796.94;4964818;28;21018;-75
2023/09/26 10:07:11;;;;;;;2.90;2.70;;;;;;;17.15;100.00;100795.88;4952094;28;20203;-77
2023/09/26 10:09:38;;;;;;;3.33;3.03;;;;;;;17.28;100.00;100791.16;4958633;28;20197;-75
2023/09/26 10:12:04;;;;;;;3.40;3.00;;;;;;;17.20;100.00;100788.75;4959201;28;20202;-74
2023/09/26 10:14:32;;;;;;;3.30;2.43;;;;;;;17.60;100.00;100790.22;4969333;28;20272;-75
2023/09/26 10:16:57;;;;;;;3.23;2.27;;;;;;;17.84;100.00;100782.50;4959655;28;20197;-77
2023/09/26 10:19:28;;;;;;;3.30;2.50;;;;;;;17.96;100.00;100786.50;4954471;28;20214;-76
2023/09/26 10:22:16;;;;;;;3.67;2.67;;;;;;;18.04;100.00;100778.44;4956617;28;20190;-75
2023/09/26 10:24:47;;;;;;;3.60;2.30;;;;;;;18.07;100.00;100775.72;4949628;28;20828;-75
2023/09/26 10:27:12;;;;;;;6.33;3.30;;;;;;;17.93;100.00;100771.72;4953025;28;20677;-76
2023/09/26 10:29:38;;;;;;;5.00;3.47;;;;;;;17.73;100.00;100776.75;4948630;28;20222;-76
2023/09/26 10:32:06;;;;;;;4.37;2.97;;;;;;;18.06;100.00;100779.25;4957001;28;20308;-77
2023/09/26 10:34:36;;;;;;;3.60;2.70;;;;;;;18.40;100.00;100765.00;4969246;28;20224;-76
2023/09/26 10:37:06;;;;;;;3.03;2.53;;;;;;;18.59;100.00;100767.88;4956267;28;20252;-77
2023/09/26 10:39:39;;;;;;;2.50;2.20;;;;;;;18.66;100.00;100764.09;4973203;28;20253;-77
2023/09/26 10:42:13;;;;;;;3.17;2.90;;;;;;;18.58;100.00;100753.88;4967130;28;20554;-76
2023/09/26 10:44:43;;;;;;;3.93;2.37;;;;;;;18.65;100.00;100756.31;4965695;28;20868;-76
2023/09/26 10:47:12;;;;;;;3.00;2.60;;;;;;;18.69;100.00;100750.91;4963779;28;20238;-76
2023/09/26 10:49:37;;;;;;;5.10;2.87;;;;;;;18.31;100.00;100755.69;4967971;28;20190;-77
2023/09/26 10:52:05;;;;;;;3.00;2.70;;;;;;;18.28;100.00;100759.28;4963832;28;20658;-76
2023/09/26 10:54:33;;;;;;;2.47;2.23;;;;;;;18.68;100.00;100758.81;4968545;28;20205;-75
2023/09/26 10:56:59;;;;;;;4.30;2.70;;;;;;;18.64;100.00;100752.81;4967802;28;20194;-74
2023/09/26 10:59:29;;;;;;;2.50;2.30;;;;;;;18.78;98.96;100752.34;4963001;28;20272;-77
2023/09/26 11:01:59;;;;;;;3.00;2.70;;;;;;;18.82;99.20;100750.44;4965356;28;20706;-77
2023/09/26 11:04:31;;;;;;;4.10;2.67;;;;;;;18.68;99.26;100759.66;4960661;28;20610;-75
2023/09/26 11:06:57;;;;;;;6.60;2.43;;;;;;;18.82;98.24;100753.94;4968818;28;20221;-76
2023/09/26 11:09:24;;;;;;;3.63;2.77;;;;;;;18.95;98.25;100750.91;4969563;28;20221;-76
2023/09/26 11:11:49;;;;;;;3.73;2.70;;;;;;;19.21;96.81;100752.53;4955221;28;20186;-76
2023/09/26 11:14:15;;;;;;;3.87;2.90;;;;;;;18.81;96.84;100749.59;4968396;28;20200;-76
2023/09/26 11:16:41;;;;;;;3.73;2.70;;;;;;;18.83;96.57;100749.53;4971820;28;20200;-77